createdAt,value
2018-07-16T00:00:08.065Z,5.28
2018-07-16T00:00:20.668Z,5.28
2018-07-16T00:00:33.084Z,5.28
2018-07-16T00:00:45.644Z,5.28
2018-07-16T00:00:58.044Z,5.28
2018-07-16T00:01:10.493Z,5.28
2018-07-16T00:01:22.912Z,5.28
2018-07-16T00:01:35.327Z,5.28
2018-07-16T00:01:47.866Z,5.28
2018-07-16T00:02:00.330Z,5.28
2018-07-16T00:02:12.750Z,5.28
2018-07-16T00:02:25.151Z,5.28
2018-07-16T00:02:37.551Z,5.28
2018-07-16T00:02:49.981Z,5.28
2018-07-16T00:03:02.408Z,5.28
2018-07-16T00:03:14.813Z,5.28
2018-07-16T00:03:27.225Z,5.28
2018-07-16T00:03:39.619Z,5.28
2018-07-16T00:03:52.005Z,5.28
2018-07-16T00:04:04.409Z,4.79
2018-07-16T00:04:16.818Z,4.79
2018-07-16T00:04:29.231Z,4.79
2018-07-16T00:04:41.640Z,4.79
2018-07-16T00:04:54.057Z,4.79
2018-07-16T00:05:06.487Z,4.79
2018-07-16T00:05:18.896Z,4.79
2018-07-16T00:05:31.307Z,4.79
2018-07-16T00:05:43.716Z,4.79
2018-07-16T00:05:56.131Z,4.79
2018-07-16T00:06:08.547Z,4.79
2018-07-16T00:06:20.973Z,4.79
2018-07-16T00:06:33.389Z,4.79
2018-07-16T00:06:45.792Z,4.79
2018-07-16T00:06:58.175Z,4.79
2018-07-16T00:07:10.584Z,4.79
2018-07-16T00:07:23.013Z,4.79
2018-07-16T00:07:35.430Z,4.79
2018-07-16T00:07:47.854Z,4.79
2018-07-16T00:08:00.248Z,4.79
2018-07-16T00:08:12.647Z,4.79
2018-07-16T00:08:25.040Z,4.79
2018-07-16T00:08:37.440Z,4.79
2018-07-16T00:08:49.844Z,4.79
2018-07-16T00:09:02.272Z,4.79
2018-07-16T00:09:14.675Z,4.79
2018-07-16T00:09:27.113Z,4.79
2018-07-16T00:09:39.502Z,4.79
2018-07-16T00:09:51.895Z,4.79
2018-07-16T00:10:04.293Z,4.79
2018-07-16T00:10:16.704Z,4.79
2018-07-16T00:10:29.122Z,4.79
2018-07-16T00:10:41.542Z,4.79
2018-07-16T00:10:53.949Z,4.79
2018-07-16T00:11:06.356Z,4.79
2018-07-16T00:11:18.771Z,4.79
2018-07-16T00:11:31.178Z,4.79
2018-07-16T00:11:43.591Z,4.79
2018-07-16T00:11:55.987Z,4.79
2018-07-16T00:12:08.387Z,4.79
2018-07-16T00:12:20.853Z,4.79
2018-07-16T00:12:33.464Z,4.79
2018-07-16T00:12:45.869Z,4.79
2018-07-16T00:12:58.390Z,4.79
2018-07-16T00:13:10.812Z,4.79
2018-07-16T00:13:23.218Z,4.79
2018-07-16T00:13:35.607Z,4.79
2018-07-16T00:13:47.995Z,4.79
2018-07-16T00:14:00.396Z,5.68
2018-07-16T00:14:12.802Z,5.68
2018-07-16T00:14:25.199Z,5.68
2018-07-16T00:14:38.007Z,5.68
2018-07-16T00:14:51.136Z,5.68
2018-07-16T00:15:03.541Z,5.68
2018-07-16T00:15:15.949Z,5.68
2018-07-16T00:15:28.372Z,5.68
2018-07-16T00:15:40.753Z,5.68
2018-07-16T00:15:53.176Z,5.68
2018-07-16T00:16:05.579Z,5.68
2018-07-16T00:16:17.985Z,5.68
2018-07-16T00:16:30.382Z,5.68
2018-07-16T00:16:42.774Z,5.68
2018-07-16T00:16:55.187Z,5.68
2018-07-16T00:17:07.605Z,5.68
2018-07-16T00:17:20.009Z,5.68
2018-07-16T00:17:32.411Z,5.68
2018-07-16T00:17:44.841Z,5.68
2018-07-16T00:17:57.292Z,5.68
2018-07-16T00:18:09.707Z,5.68
2018-07-16T00:18:22.128Z,5.68
2018-07-16T00:18:34.543Z,5.68
2018-07-16T00:18:47.009Z,5.68
2018-07-16T00:18:59.415Z,5.68
2018-07-16T00:19:11.863Z,5.68
2018-07-16T00:19:24.307Z,5.68
2018-07-16T00:19:36.700Z,5.68
2018-07-16T00:19:49.108Z,5.68
2018-07-16T00:20:01.502Z,5.68
2018-07-16T00:20:13.914Z,5.68
2018-07-16T00:20:26.332Z,5.68
2018-07-16T00:20:38.917Z,5.68
2018-07-16T00:20:51.312Z,5.68
2018-07-16T00:21:03.712Z,5.68
2018-07-16T00:21:16.165Z,5.68
2018-07-16T00:21:28.555Z,5.68
2018-07-16T00:21:40.994Z,5.68
2018-07-16T00:21:53.386Z,5.68
2018-07-16T00:22:05.802Z,5.68
2018-07-16T00:22:18.199Z,5.68
2018-07-16T00:22:30.629Z,5.68
2018-07-16T00:22:43.051Z,5.68
2018-07-16T00:22:55.502Z,5.68
2018-07-16T00:23:07.928Z,5.68
2018-07-16T00:23:20.418Z,5.68
2018-07-16T00:23:32.826Z,5.68
2018-07-16T00:23:45.241Z,5.68
2018-07-16T00:23:57.643Z,5.68
2018-07-16T00:24:10.054Z,6.88
2018-07-16T00:24:22.438Z,6.88
2018-07-16T00:24:34.865Z,6.88
2018-07-16T00:24:47.286Z,6.88
2018-07-16T00:24:59.695Z,6.88
2018-07-16T00:25:12.109Z,6.88
2018-07-16T00:25:24.568Z,6.88
2018-07-16T00:25:37.009Z,6.88
2018-07-16T00:25:49.414Z,6.88
2018-07-16T00:26:01.848Z,6.88
2018-07-16T00:26:14.266Z,6.88
2018-07-16T00:26:26.689Z,6.88
2018-07-16T00:26:39.099Z,6.88
2018-07-16T00:26:51.565Z,6.88
2018-07-16T00:27:03.976Z,6.88
2018-07-16T00:27:16.389Z,6.88
2018-07-16T00:27:28.780Z,6.88
2018-07-16T00:27:41.200Z,6.88
2018-07-16T00:27:53.625Z,6.88
2018-07-16T00:28:06.048Z,6.88
2018-07-16T00:28:18.489Z,6.88
2018-07-16T00:28:30.911Z,6.88
2018-07-16T00:28:43.321Z,6.88
2018-07-16T00:28:55.704Z,6.88
2018-07-16T00:29:08.149Z,6.88
2018-07-16T00:29:20.691Z,6.88
2018-07-16T00:29:33.104Z,6.88
2018-07-16T00:29:45.530Z,6.88
2018-07-16T00:29:57.913Z,6.88
2018-07-16T00:30:10.321Z,6.88
2018-07-16T00:30:22.723Z,6.88
2018-07-16T00:30:35.176Z,6.88
2018-07-16T00:30:47.574Z,6.88
2018-07-16T00:30:59.965Z,6.88
2018-07-16T00:31:12.561Z,6.88
2018-07-16T00:31:24.946Z,6.88
2018-07-16T00:31:37.349Z,6.88
2018-07-16T00:31:49.746Z,6.88
2018-07-16T00:32:02.153Z,6.88
2018-07-16T00:32:14.540Z,6.88
2018-07-16T00:32:26.942Z,6.88
2018-07-16T00:32:39.339Z,6.88
2018-07-16T00:32:51.750Z,6.88
2018-07-16T00:33:04.163Z,6.88
2018-07-16T00:33:16.569Z,6.88
2018-07-16T00:33:28.984Z,6.88
2018-07-16T00:33:41.379Z,6.88
2018-07-16T00:33:53.786Z,6.88
2018-07-16T00:34:06.200Z,6.02
2018-07-16T00:34:18.643Z,6.02
2018-07-16T00:34:31.064Z,6.02
2018-07-16T00:34:43.458Z,6.02
2018-07-16T00:34:55.852Z,6.02
2018-07-16T00:35:08.259Z,6.02
2018-07-16T00:35:20.670Z,6.02
2018-07-16T00:35:33.058Z,6.02
2018-07-16T00:35:45.481Z,6.02
2018-07-16T00:35:57.878Z,6.02
2018-07-16T00:36:10.293Z,6.02
2018-07-16T00:36:22.749Z,6.02
2018-07-16T00:36:35.167Z,6.02
2018-07-16T00:36:47.563Z,6.02
2018-07-16T00:36:59.952Z,6.02
2018-07-16T00:37:12.355Z,6.02
2018-07-16T00:37:24.760Z,6.02
2018-07-16T00:37:37.183Z,6.02
2018-07-16T00:37:49.618Z,6.02
2018-07-16T00:38:02.037Z,6.02
2018-07-16T00:38:14.421Z,6.02
2018-07-16T00:38:26.822Z,6.02
2018-07-16T00:38:39.211Z,6.02
2018-07-16T00:38:51.631Z,6.02
2018-07-16T00:39:04.044Z,6.02
2018-07-16T00:39:16.419Z,6.02
2018-07-16T00:39:28.797Z,6.02
2018-07-16T00:39:41.215Z,6.02
2018-07-16T00:39:53.631Z,6.02
2018-07-16T00:40:06.038Z,6.02
2018-07-16T00:40:18.456Z,6.02
2018-07-16T00:40:30.863Z,6.02
2018-07-16T00:40:43.253Z,6.02
2018-07-16T00:40:55.648Z,6.02
2018-07-16T00:41:08.062Z,6.02
2018-07-16T00:41:20.534Z,6.02
2018-07-16T00:41:32.922Z,6.02
2018-07-16T00:41:45.334Z,6.02
2018-07-16T00:41:57.723Z,6.02
2018-07-16T00:42:10.153Z,6.02
2018-07-16T00:42:22.544Z,6.02
2018-07-16T00:42:34.984Z,6.02
2018-07-16T00:42:47.392Z,6.02
2018-07-16T00:42:59.789Z,6.02
2018-07-16T00:43:12.200Z,6.02
2018-07-16T00:43:24.612Z,6.02
2018-07-16T00:43:37.019Z,6.02
2018-07-16T00:43:49.425Z,6.02
2018-07-16T00:44:01.838Z,6.02
2018-07-16T00:44:14.307Z,7.65
2018-07-16T00:44:27.567Z,7.65
2018-07-16T00:44:40.306Z,7.65
2018-07-16T00:44:52.831Z,7.65
2018-07-16T00:45:05.313Z,7.65
2018-07-16T00:45:17.739Z,7.65
2018-07-16T00:45:30.161Z,7.65
2018-07-16T00:45:42.572Z,7.65
2018-07-16T00:45:54.979Z,7.65
2018-07-16T00:46:07.427Z,7.65
2018-07-16T00:46:19.850Z,7.65
2018-07-16T00:46:32.289Z,7.65
2018-07-16T00:46:44.703Z,7.65
2018-07-16T00:46:57.118Z,7.65
2018-07-16T00:47:09.530Z,7.65
2018-07-16T00:47:21.937Z,7.65
2018-07-16T00:47:34.353Z,7.65
2018-07-16T00:47:46.755Z,7.65
2018-07-16T00:47:59.148Z,7.65
2018-07-16T00:48:11.565Z,7.65
2018-07-16T00:48:23.982Z,7.65
2018-07-16T00:48:36.457Z,7.65
2018-07-16T00:48:49.007Z,7.65
2018-07-16T00:49:01.408Z,7.65
2018-07-16T00:49:13.802Z,7.65
2018-07-16T00:49:26.207Z,7.65
2018-07-16T00:49:38.605Z,7.65
2018-07-16T00:49:51.031Z,7.65
2018-07-16T00:50:03.451Z,7.65
2018-07-16T00:50:15.913Z,7.65
2018-07-16T00:50:28.349Z,7.65
2018-07-16T00:50:40.777Z,7.65
2018-07-16T00:50:53.184Z,7.65
2018-07-16T00:51:05.617Z,7.65
2018-07-16T00:51:18.034Z,7.65
2018-07-16T00:51:30.485Z,7.65
2018-07-16T00:51:42.907Z,7.65
2018-07-16T00:51:55.349Z,7.65
2018-07-16T00:52:07.781Z,7.65
2018-07-16T00:52:20.185Z,7.65
2018-07-16T00:52:32.586Z,7.65
2018-07-16T00:52:44.991Z,7.65
2018-07-16T00:52:57.396Z,7.65
2018-07-16T00:53:09.812Z,7.65
2018-07-16T00:53:22.225Z,7.65
2018-07-16T00:53:34.617Z,7.65
2018-07-16T00:53:47.111Z,7.65
2018-07-16T00:53:59.515Z,7.65
2018-07-16T00:54:12.146Z,5.79
2018-07-16T00:54:24.727Z,5.79
2018-07-16T00:54:37.116Z,5.79
2018-07-16T00:54:49.520Z,5.79
2018-07-16T00:55:01.936Z,5.79
2018-07-16T00:55:14.347Z,5.79
2018-07-16T00:55:26.789Z,5.79
2018-07-16T00:55:39.337Z,5.79
2018-07-16T00:55:52.430Z,5.79
2018-07-16T00:56:04.872Z,5.79
2018-07-16T00:56:17.328Z,5.79
2018-07-16T00:56:30.505Z,5.79
2018-07-16T00:56:43.335Z,5.79
2018-07-16T00:56:55.765Z,5.79
2018-07-16T00:57:08.244Z,5.79
2018-07-16T00:57:20.874Z,5.79
2018-07-16T00:57:33.488Z,5.79
2018-07-16T00:57:45.962Z,5.79
2018-07-16T00:57:58.382Z,5.79
2018-07-16T00:58:10.786Z,5.79
2018-07-16T00:58:23.197Z,5.79
2018-07-16T00:58:35.688Z,5.79
2018-07-16T00:58:48.094Z,5.79
2018-07-16T00:59:00.638Z,5.79
2018-07-16T00:59:13.146Z,5.79
2018-07-16T00:59:25.561Z,5.79
2018-07-16T00:59:37.954Z,5.79
2018-07-16T00:59:50.362Z,5.79
2018-07-16T01:00:02.778Z,5.79
2018-07-16T01:00:15.344Z,5.79
2018-07-16T01:00:27.794Z,5.79
2018-07-16T01:00:40.246Z,5.79
2018-07-16T01:00:52.654Z,5.79
2018-07-16T01:01:05.074Z,5.79
2018-07-16T01:01:17.520Z,5.79
2018-07-16T01:01:29.956Z,5.79
2018-07-16T01:01:42.373Z,5.79
2018-07-16T01:01:54.997Z,5.79
2018-07-16T01:02:07.425Z,5.79
2018-07-16T01:02:19.865Z,5.79
2018-07-16T01:02:32.293Z,5.79
2018-07-16T01:02:44.710Z,5.79
2018-07-16T01:02:57.199Z,5.79
2018-07-16T01:03:09.676Z,5.79
2018-07-16T01:03:22.091Z,5.79
2018-07-16T01:03:34.486Z,5.79
2018-07-16T01:03:46.916Z,5.79
2018-07-16T01:03:59.316Z,5.79
2018-07-16T01:04:11.729Z,6.75
2018-07-16T01:04:24.150Z,6.75
2018-07-16T01:04:36.576Z,6.75
2018-07-16T01:04:48.988Z,6.75
2018-07-16T01:05:01.394Z,6.75
2018-07-16T01:05:13.842Z,6.75
2018-07-16T01:05:26.253Z,6.75
2018-07-16T01:05:38.756Z,6.75
2018-07-16T01:05:51.151Z,6.75
2018-07-16T01:06:03.562Z,6.75
2018-07-16T01:06:15.982Z,6.75
2018-07-16T01:06:28.382Z,6.75
2018-07-16T01:06:40.839Z,6.75
2018-07-16T01:06:53.254Z,6.75
2018-07-16T01:07:05.699Z,6.75
2018-07-16T01:07:18.119Z,6.75
2018-07-16T01:07:30.581Z,6.75
2018-07-16T01:07:42.986Z,6.75
2018-07-16T01:07:55.366Z,6.75
2018-07-16T01:08:07.793Z,6.75
2018-07-16T01:08:20.230Z,6.75
2018-07-16T01:08:32.653Z,6.75
2018-07-16T01:08:45.076Z,6.75
2018-07-16T01:08:57.486Z,6.75
2018-07-16T01:09:09.919Z,6.75
2018-07-16T01:09:22.313Z,6.75
2018-07-16T01:09:34.722Z,6.75
2018-07-16T01:09:47.124Z,6.75
2018-07-16T01:09:59.526Z,6.75
2018-07-16T01:10:11.948Z,6.75
2018-07-16T01:10:24.354Z,6.75
2018-07-16T01:10:36.811Z,6.75
2018-07-16T01:10:49.219Z,6.75
2018-07-16T01:11:01.620Z,6.75
2018-07-16T01:11:14.020Z,6.75
2018-07-16T01:11:26.419Z,6.75
2018-07-16T01:11:38.817Z,6.75
2018-07-16T01:11:51.224Z,6.75
2018-07-16T01:12:03.647Z,6.75
2018-07-16T01:12:16.034Z,6.75
2018-07-16T01:12:28.457Z,6.75
2018-07-16T01:12:40.873Z,6.75
2018-07-16T01:12:53.310Z,6.75
2018-07-16T01:13:05.897Z,6.75
2018-07-16T01:13:18.308Z,6.75
2018-07-16T01:13:30.777Z,6.75
2018-07-16T01:13:43.231Z,6.75
2018-07-16T01:13:55.652Z,6.75
2018-07-16T01:14:08.082Z,5.67
2018-07-16T01:14:20.480Z,5.67
2018-07-16T01:14:32.876Z,5.67
2018-07-16T01:14:45.259Z,5.67
2018-07-16T01:14:57.730Z,5.67
2018-07-16T01:15:10.142Z,5.67
2018-07-16T01:15:22.613Z,5.67
2018-07-16T01:15:35.078Z,5.67
2018-07-16T01:15:47.502Z,5.67
2018-07-16T01:15:59.895Z,5.67
2018-07-16T01:16:12.307Z,5.67
2018-07-16T01:16:24.706Z,5.67
2018-07-16T01:16:37.125Z,5.67
2018-07-16T01:16:49.538Z,5.67
2018-07-16T01:17:01.957Z,5.67
2018-07-16T01:17:14.406Z,5.67
2018-07-16T01:17:26.819Z,5.67
2018-07-16T01:17:39.215Z,5.67
2018-07-16T01:17:51.602Z,5.67
2018-07-16T01:18:04.046Z,5.67
2018-07-16T01:18:16.498Z,5.67
2018-07-16T01:18:28.911Z,5.67
2018-07-16T01:18:41.315Z,5.67
2018-07-16T01:18:53.720Z,5.67
2018-07-16T01:19:06.156Z,5.67
2018-07-16T01:19:18.588Z,5.67
2018-07-16T01:19:30.996Z,5.67
2018-07-16T01:19:43.417Z,5.67
2018-07-16T01:19:55.819Z,5.67
2018-07-16T01:20:08.212Z,5.67
2018-07-16T01:20:20.615Z,5.67
2018-07-16T01:20:33.216Z,5.67
2018-07-16T01:20:45.609Z,5.67
2018-07-16T01:20:58.019Z,5.67
2018-07-16T01:21:10.506Z,5.67
2018-07-16T01:21:22.919Z,5.67
2018-07-16T01:21:35.308Z,5.67
2018-07-16T01:21:47.709Z,5.67
2018-07-16T01:22:00.095Z,5.67
2018-07-16T01:22:12.526Z,5.67
2018-07-16T01:22:24.951Z,5.67
2018-07-16T01:22:37.352Z,5.67
2018-07-16T01:22:49.767Z,5.67
2018-07-16T01:23:02.170Z,5.67
2018-07-16T01:23:14.567Z,5.67
2018-07-16T01:23:26.976Z,5.67
2018-07-16T01:23:39.378Z,5.67
2018-07-16T01:23:51.774Z,5.67
2018-07-16T01:24:04.168Z,5.67
2018-07-16T01:24:16.582Z,6.02
2018-07-16T01:24:28.992Z,6.02
2018-07-16T01:24:41.433Z,6.02
2018-07-16T01:24:53.864Z,6.02
2018-07-16T01:25:06.349Z,6.02
2018-07-16T01:25:18.768Z,6.02
2018-07-16T01:25:31.202Z,6.02
2018-07-16T01:25:43.636Z,6.02
2018-07-16T01:25:56.025Z,6.02
2018-07-16T01:26:08.447Z,6.02
2018-07-16T01:26:20.858Z,6.02
2018-07-16T01:26:33.258Z,6.02
2018-07-16T01:26:45.693Z,6.02
2018-07-16T01:26:58.123Z,6.02
2018-07-16T01:27:10.531Z,6.02
2018-07-16T01:27:22.925Z,6.02
2018-07-16T01:27:35.334Z,6.02
2018-07-16T01:27:47.783Z,6.02
2018-07-16T01:28:00.203Z,6.02
2018-07-16T01:28:12.620Z,6.02
2018-07-16T01:28:25.054Z,6.02
2018-07-16T01:28:37.465Z,6.02
2018-07-16T01:28:49.865Z,6.02
2018-07-16T01:29:02.290Z,6.02
2018-07-16T01:29:14.843Z,6.02
2018-07-16T01:29:27.236Z,6.02
2018-07-16T01:29:39.659Z,6.02
2018-07-16T01:29:52.072Z,6.02
2018-07-16T01:30:04.510Z,6.02
2018-07-16T01:30:16.936Z,6.02
2018-07-16T01:30:29.348Z,6.02
2018-07-16T01:30:41.749Z,6.02
2018-07-16T01:30:54.143Z,6.02
2018-07-16T01:31:06.540Z,6.02
2018-07-16T01:31:19.116Z,6.02
2018-07-16T01:31:31.510Z,6.02
2018-07-16T01:31:43.918Z,6.02
2018-07-16T01:31:56.311Z,6.02
2018-07-16T01:32:08.695Z,6.02
2018-07-16T01:32:21.100Z,6.02
2018-07-16T01:32:33.513Z,6.02
2018-07-16T01:32:46.013Z,6.02
2018-07-16T01:32:58.415Z,6.02
2018-07-16T01:33:10.827Z,6.02
2018-07-16T01:33:23.220Z,6.02
2018-07-16T01:33:35.624Z,6.02
2018-07-16T01:33:48.022Z,6.02
2018-07-16T01:34:00.437Z,6.02
2018-07-16T01:34:12.829Z,6.62
2018-07-16T01:34:25.242Z,6.62
2018-07-16T01:34:37.671Z,6.62
2018-07-16T01:34:50.073Z,6.62
2018-07-16T01:35:02.478Z,6.62
2018-07-16T01:35:14.929Z,6.62
2018-07-16T01:35:27.345Z,6.62
2018-07-16T01:35:39.756Z,6.62
2018-07-16T01:35:52.143Z,6.62
2018-07-16T01:36:04.555Z,6.62
2018-07-16T01:36:16.989Z,6.62
2018-07-16T01:36:29.401Z,6.62
2018-07-16T01:36:41.803Z,6.62
2018-07-16T01:36:54.247Z,6.62
2018-07-16T01:37:06.655Z,6.62
2018-07-16T01:37:19.067Z,6.62
2018-07-16T01:37:31.475Z,6.62
2018-07-16T01:37:43.907Z,6.62
2018-07-16T01:37:56.322Z,6.62
2018-07-16T01:38:08.808Z,6.62
2018-07-16T01:38:21.227Z,6.62
2018-07-16T01:38:33.619Z,6.62
2018-07-16T01:38:46.058Z,6.62
2018-07-16T01:38:58.461Z,6.62
2018-07-16T01:39:10.931Z,6.62
2018-07-16T01:39:23.341Z,6.62
2018-07-16T01:39:35.760Z,6.62
2018-07-16T01:39:48.161Z,6.62
2018-07-16T01:40:00.588Z,6.62
2018-07-16T01:40:12.983Z,6.62
2018-07-16T01:40:25.401Z,6.62
2018-07-16T01:40:37.812Z,6.62
2018-07-16T01:40:50.226Z,6.62
2018-07-16T01:41:02.613Z,6.62
2018-07-16T01:41:15.028Z,6.62
2018-07-16T01:41:27.431Z,6.62
2018-07-16T01:41:39.818Z,6.62
2018-07-16T01:41:52.230Z,6.62
2018-07-16T01:42:04.633Z,6.62
2018-07-16T01:42:17.038Z,6.62
2018-07-16T01:42:29.447Z,6.62
2018-07-16T01:42:41.851Z,6.62
2018-07-16T01:42:54.269Z,6.62
2018-07-16T01:43:06.726Z,6.62
2018-07-16T01:43:19.134Z,6.62
2018-07-16T01:43:31.533Z,6.62
2018-07-16T01:43:43.944Z,6.62
2018-07-16T01:43:56.364Z,6.62
2018-07-16T01:44:08.781Z,6.8
2018-07-16T01:44:21.204Z,6.8
2018-07-16T01:44:33.624Z,6.8
2018-07-16T01:44:46.060Z,6.8
2018-07-16T01:44:58.848Z,6.8
2018-07-16T01:45:11.291Z,6.8
2018-07-16T01:45:23.725Z,6.8
2018-07-16T01:45:36.157Z,6.8
2018-07-16T01:45:48.567Z,6.8
2018-07-16T01:46:00.978Z,6.8
2018-07-16T01:46:13.395Z,6.8
2018-07-16T01:46:25.785Z,6.8
2018-07-16T01:46:38.181Z,6.8
2018-07-16T01:46:50.566Z,6.8
2018-07-16T01:47:02.972Z,6.8
2018-07-16T01:47:15.384Z,6.8
2018-07-16T01:47:27.810Z,6.8
2018-07-16T01:47:40.208Z,6.8
2018-07-16T01:47:52.615Z,6.8
2018-07-16T01:48:05.017Z,6.8
2018-07-16T01:48:17.418Z,6.8
2018-07-16T01:48:29.820Z,6.8
2018-07-16T01:48:42.229Z,6.8
2018-07-16T01:48:54.739Z,6.8
2018-07-16T01:49:07.129Z,6.8
2018-07-16T01:49:19.533Z,6.8
2018-07-16T01:49:31.939Z,6.8
2018-07-16T01:49:44.339Z,6.8
2018-07-16T01:49:56.756Z,6.8
2018-07-16T01:50:09.163Z,6.8
2018-07-16T01:50:21.592Z,6.8
2018-07-16T01:50:34.008Z,6.8
2018-07-16T01:50:46.429Z,6.8
2018-07-16T01:50:58.826Z,6.8
2018-07-16T01:51:11.260Z,6.8
2018-07-16T01:51:23.664Z,6.8
2018-07-16T01:51:36.126Z,6.8
2018-07-16T01:51:48.530Z,6.8
2018-07-16T01:52:00.925Z,6.8
2018-07-16T01:52:13.334Z,6.8
2018-07-16T01:52:25.755Z,6.8
2018-07-16T01:52:38.201Z,6.8
2018-07-16T01:52:50.626Z,6.8
2018-07-16T01:53:03.040Z,6.8
2018-07-16T01:53:15.426Z,6.8
2018-07-16T01:53:27.825Z,6.8
2018-07-16T01:53:40.280Z,6.8
2018-07-16T01:53:52.727Z,6.8
2018-07-16T01:54:05.305Z,6.8
2018-07-16T01:54:17.704Z,7.02
2018-07-16T01:54:30.132Z,7.02
2018-07-16T01:54:42.545Z,7.02
2018-07-16T01:54:55.114Z,7.02
2018-07-16T01:55:07.493Z,7.02
2018-07-16T01:55:19.893Z,7.02
2018-07-16T01:55:32.277Z,7.02
2018-07-16T01:55:44.697Z,7.02
2018-07-16T01:55:57.109Z,7.02
2018-07-16T01:56:09.568Z,7.02
2018-07-16T01:56:21.980Z,7.02
2018-07-16T01:56:34.388Z,7.02
2018-07-16T01:56:46.803Z,7.02
2018-07-16T01:56:59.220Z,7.02
2018-07-16T01:57:11.610Z,7.02
2018-07-16T01:57:24.057Z,7.02
2018-07-16T01:57:36.449Z,7.02
2018-07-16T01:57:48.864Z,7.02
2018-07-16T01:58:01.420Z,7.02
2018-07-16T01:58:13.831Z,7.02
2018-07-16T01:58:26.234Z,7.02
2018-07-16T01:58:38.641Z,7.02
2018-07-16T01:58:51.075Z,7.02
2018-07-16T01:59:03.475Z,7.02
2018-07-16T01:59:15.875Z,7.02
2018-07-16T01:59:28.265Z,7.02
2018-07-16T01:59:40.648Z,7.02
2018-07-16T01:59:53.038Z,7.02
2018-07-16T02:00:05.444Z,7.02
2018-07-16T02:00:18.069Z,7.02
2018-07-16T02:00:30.487Z,7.02
2018-07-16T02:00:42.912Z,7.02
2018-07-16T02:00:55.332Z,7.02
2018-07-16T02:01:07.815Z,7.02
2018-07-16T02:01:20.262Z,7.02
2018-07-16T02:01:32.682Z,7.02
2018-07-16T02:01:45.197Z,7.02
2018-07-16T02:01:57.612Z,7.02
2018-07-16T02:02:10.009Z,7.02
2018-07-16T02:02:22.447Z,7.02
2018-07-16T02:02:34.926Z,7.02
2018-07-16T02:02:47.341Z,7.02
2018-07-16T02:02:59.746Z,7.02
2018-07-16T02:03:12.152Z,7.02
2018-07-16T02:03:24.609Z,7.02
2018-07-16T02:03:37.081Z,7.02
2018-07-16T02:03:49.482Z,7.02
2018-07-16T02:04:01.885Z,7.02
2018-07-16T02:04:14.291Z,6.85
2018-07-16T02:04:26.733Z,6.85
2018-07-16T02:04:39.114Z,6.85
2018-07-16T02:04:51.505Z,6.85
2018-07-16T02:05:03.923Z,6.85
2018-07-16T02:05:16.337Z,6.85
2018-07-16T02:05:28.748Z,6.85
2018-07-16T02:05:41.185Z,6.85
2018-07-16T02:05:53.630Z,6.85
2018-07-16T02:06:06.049Z,6.85
2018-07-16T02:06:18.481Z,6.85
2018-07-16T02:06:30.882Z,6.85
2018-07-16T02:06:43.290Z,6.85
2018-07-16T02:06:55.753Z,6.85
2018-07-16T02:07:08.162Z,6.85
2018-07-16T02:07:20.568Z,6.85
2018-07-16T02:07:32.971Z,6.85
2018-07-16T02:07:45.363Z,6.85
2018-07-16T02:07:57.748Z,6.85
2018-07-16T02:08:10.234Z,6.85
2018-07-16T02:08:22.637Z,6.85
2018-07-16T02:08:35.079Z,6.85
2018-07-16T02:08:47.495Z,6.85
2018-07-16T02:08:59.902Z,6.85
2018-07-16T02:09:12.313Z,6.85
2018-07-16T02:09:24.703Z,6.85
2018-07-16T02:09:37.110Z,6.85
2018-07-16T02:09:49.515Z,6.85
2018-07-16T02:10:01.913Z,6.85
2018-07-16T02:10:14.328Z,6.85
2018-07-16T02:10:26.732Z,6.85
2018-07-16T02:10:39.149Z,6.85
2018-07-16T02:10:51.557Z,6.85
2018-07-16T02:11:03.974Z,6.85
2018-07-16T02:11:16.433Z,6.85
2018-07-16T02:11:28.881Z,6.85
2018-07-16T02:11:41.304Z,6.85
2018-07-16T02:11:53.704Z,6.85
2018-07-16T02:12:06.160Z,6.85
2018-07-16T02:12:18.584Z,6.85
2018-07-16T02:12:31.020Z,6.85
2018-07-16T02:12:43.482Z,6.85
2018-07-16T02:12:55.890Z,6.85
2018-07-16T02:13:08.369Z,6.85
2018-07-16T02:13:20.764Z,6.85
2018-07-16T02:13:33.177Z,6.85
2018-07-16T02:13:45.583Z,6.85
2018-07-16T02:13:58.064Z,6.85
2018-07-16T02:14:10.464Z,7.87
2018-07-16T02:14:22.862Z,7.87
2018-07-16T02:14:35.251Z,7.87
2018-07-16T02:14:47.807Z,7.87
2018-07-16T02:15:00.210Z,7.87
2018-07-16T02:15:12.635Z,7.87
2018-07-16T02:15:25.026Z,7.87
2018-07-16T02:15:37.435Z,7.87
2018-07-16T02:15:49.845Z,7.87
2018-07-16T02:16:02.245Z,7.87
2018-07-16T02:16:14.645Z,7.87
2018-07-16T02:16:27.036Z,7.87
2018-07-16T02:16:39.441Z,7.87
2018-07-16T02:16:51.832Z,7.87
2018-07-16T02:17:04.225Z,7.87
2018-07-16T02:17:16.664Z,7.87
2018-07-16T02:17:29.075Z,7.87
2018-07-16T02:17:41.492Z,7.87
2018-07-16T02:17:53.958Z,7.87
2018-07-16T02:18:06.372Z,7.87
2018-07-16T02:18:18.772Z,7.87
2018-07-16T02:18:31.156Z,7.87
2018-07-16T02:18:43.560Z,7.87
2018-07-16T02:18:55.962Z,7.87
2018-07-16T02:19:08.420Z,7.87
2018-07-16T02:19:20.813Z,7.87
2018-07-16T02:19:33.223Z,7.87
2018-07-16T02:19:45.671Z,7.87
2018-07-16T02:19:58.053Z,7.87
2018-07-16T02:20:10.508Z,7.87
2018-07-16T02:20:22.912Z,7.87
2018-07-16T02:20:35.473Z,7.87
2018-07-16T02:20:47.905Z,7.87
2018-07-16T02:21:00.323Z,7.87
2018-07-16T02:21:12.728Z,7.87
2018-07-16T02:21:25.122Z,7.87
2018-07-16T02:21:37.552Z,7.87
2018-07-16T02:21:49.964Z,7.87
2018-07-16T02:22:02.373Z,7.87
2018-07-16T02:22:14.769Z,7.87
2018-07-16T02:22:27.193Z,7.87
2018-07-16T02:22:39.586Z,7.87
2018-07-16T02:22:51.981Z,7.87
2018-07-16T02:23:04.394Z,7.87
2018-07-16T02:23:16.820Z,7.87
2018-07-16T02:23:29.202Z,7.87
2018-07-16T02:23:41.602Z,7.87
2018-07-16T02:23:53.999Z,7.87
2018-07-16T02:24:06.432Z,7.87
2018-07-16T02:24:18.829Z,7.88
2018-07-16T02:24:31.236Z,7.88
2018-07-16T02:24:43.654Z,7.88
2018-07-16T02:24:56.076Z,7.88
2018-07-16T02:25:08.483Z,7.88
2018-07-16T02:25:20.900Z,7.88
2018-07-16T02:25:33.328Z,7.88
2018-07-16T02:25:45.791Z,7.88
2018-07-16T02:25:58.170Z,7.88
2018-07-16T02:26:10.593Z,7.88
2018-07-16T02:26:22.983Z,7.88
2018-07-16T02:26:35.378Z,7.88
2018-07-16T02:26:47.786Z,7.88
2018-07-16T02:27:00.187Z,7.88
2018-07-16T02:27:12.612Z,7.88
2018-07-16T02:27:25.007Z,7.88
2018-07-16T02:27:37.392Z,7.88
2018-07-16T02:27:49.817Z,7.88
2018-07-16T02:28:02.216Z,7.88
2018-07-16T02:28:14.766Z,7.88
2018-07-16T02:28:27.148Z,7.88
2018-07-16T02:28:39.528Z,7.88
2018-07-16T02:28:51.943Z,7.88
2018-07-16T02:29:04.341Z,7.88
2018-07-16T02:29:16.876Z,7.88
2018-07-16T02:29:29.315Z,7.88
2018-07-16T02:29:41.756Z,7.88
2018-07-16T02:29:54.149Z,7.88
2018-07-16T02:30:06.560Z,7.88
2018-07-16T02:30:19.006Z,7.88
2018-07-16T02:30:31.658Z,7.88
2018-07-16T02:30:44.069Z,7.88
2018-07-16T02:30:56.498Z,7.88
2018-07-16T02:31:08.933Z,7.88
2018-07-16T02:31:21.656Z,7.88
2018-07-16T02:31:34.095Z,7.88
2018-07-16T02:31:46.513Z,7.88
2018-07-16T02:31:58.939Z,7.88
2018-07-16T02:32:11.355Z,7.88
2018-07-16T02:32:23.784Z,7.88
2018-07-16T02:32:36.262Z,7.88
2018-07-16T02:32:48.711Z,7.88
2018-07-16T02:33:01.160Z,7.88
2018-07-16T02:33:13.634Z,7.88
2018-07-16T02:33:26.051Z,7.88
2018-07-16T02:33:38.482Z,7.88
2018-07-16T02:33:50.900Z,7.88
2018-07-16T02:34:03.311Z,7.88
2018-07-16T02:34:15.755Z,8.74
2018-07-16T02:34:28.245Z,8.74
2018-07-16T02:34:40.692Z,8.74
2018-07-16T02:34:53.134Z,8.74
2018-07-16T02:35:05.540Z,8.74
2018-07-16T02:35:17.949Z,8.74
2018-07-16T02:35:30.346Z,8.74
2018-07-16T02:35:42.786Z,8.74
2018-07-16T02:35:55.233Z,8.74
2018-07-16T02:36:07.737Z,8.74
2018-07-16T02:36:20.170Z,8.74
2018-07-16T02:36:32.655Z,8.74
2018-07-16T02:36:45.089Z,8.74
2018-07-16T02:36:57.502Z,8.74
2018-07-16T02:37:09.967Z,8.74
2018-07-16T02:37:22.411Z,8.74
2018-07-16T02:37:34.858Z,8.74
2018-07-16T02:37:47.278Z,8.74
2018-07-16T02:37:59.665Z,8.74
2018-07-16T02:38:12.111Z,8.74
2018-07-16T02:38:24.516Z,8.74
2018-07-16T02:38:36.972Z,8.74
2018-07-16T02:38:49.612Z,8.74
2018-07-16T02:39:02.033Z,8.74
2018-07-16T02:39:14.453Z,8.74
2018-07-16T02:39:26.880Z,8.74
2018-07-16T02:39:39.303Z,8.74
2018-07-16T02:39:51.720Z,8.74
2018-07-16T02:40:04.132Z,8.74
2018-07-16T02:40:16.632Z,8.74
2018-07-16T02:40:29.070Z,8.74
2018-07-16T02:40:41.575Z,8.74
2018-07-16T02:40:54.006Z,8.74
2018-07-16T02:41:06.512Z,8.74
2018-07-16T02:41:18.934Z,8.74
2018-07-16T02:41:31.341Z,8.74
2018-07-16T02:41:43.779Z,8.74
2018-07-16T02:41:56.226Z,8.74
2018-07-16T02:42:08.711Z,8.74
2018-07-16T02:42:21.144Z,8.74
2018-07-16T02:42:33.633Z,8.74
2018-07-16T02:42:46.076Z,8.74
2018-07-16T02:42:58.517Z,8.74
2018-07-16T02:43:10.963Z,8.74
2018-07-16T02:43:23.397Z,8.74
2018-07-16T02:43:35.854Z,8.74
2018-07-16T02:43:48.305Z,8.74
2018-07-16T02:44:00.763Z,8.74
2018-07-16T02:44:13.207Z,8
2018-07-16T02:44:25.621Z,8
2018-07-16T02:44:38.043Z,8
2018-07-16T02:44:50.471Z,8
2018-07-16T02:45:02.898Z,8
2018-07-16T02:45:15.338Z,8
2018-07-16T02:45:27.807Z,8
2018-07-16T02:45:40.420Z,8
2018-07-16T02:45:52.838Z,8
2018-07-16T02:46:05.325Z,8